PAEI METAR and TAF weather

Enter ICAO airport designator
Station Type Date Time Source
PAEI METAR 2019/12/12 16:56 UTC NOAA

PAEI 121656Z 00000KT 10SM CLR M17/M20 A2945 RMK AO2A SLP988 T11711199 $


Station Type Date Time Source
PAEI Decoded METAR 2019/12/12 16:56 UTC NOAA

Fairbanks, Eielson Air Force Base, AK, United States (PAEI) 64-39N 147-06W 167M
Dec 12, 2019 - 11:56 AM EST / 2019.12.12 1656 UTC
Wind: Calm:0
Visibility: 10 mile(s):0
Sky conditions: clear
Temperature: 1.2 F (-17.1 C)
Dew Point: -3.8 F (-19.9 C)
Relative Humidity: 78%
Pressure (altimeter): 29.45 in. Hg (997 hPa)
ob: PAEI 121656Z 00000KT 10SM CLR M17/M20 A2945 RMK AO2A SLP988 T11711199
cycle: 17

Station Type Date Time Source
PAEI TAF 2019/12/12 14:09 UTC NOAA

TAF PAEI 121400Z 1214/1320 VRB05KT 9999 SKC QNH2935INS
BECMG 1311/1312 VRB06KT 9999 SCT070 SCT090 QNH2939INS
BECMG 1313/1314 VRB06KT 9999 SCT070 BKN090 WS019/13032KT 620901 QNH2939INS TXM16/1214Z TNM21/1218Z

Example: see airport list